Time;durP1;ratioP1;P1;durP2;ratioP2;P2;SDS_P1;SDS_P2;PMS_P1;PMS_P2;Temp;Humidity;BMP_temperature;BMP_pressure;BME280_temperature;BME280_humidity;BME280_pressure;Samples;Min_cycle;Max_cycle;Signal;HPM_P1;HPM_P2
2023/08/21 00:02:25;;;;;;;7.78;7.07;;;25.40;76.10;;;;;;5030833;28;20041;-66
2023/08/21 00:04:51;;;;;;;8.73;7.00;;;25.40;76.20;;;;;;5032508;28;20657;-65
2023/08/21 00:07:16;;;;;;;7.90;7.20;;;25.40;76.10;;;;;;5032614;28;20132;-64
2023/08/21 00:09:42;;;;;;;7.43;6.72;;;25.40;76.00;;;;;;5033159;28;20052;-64
2023/08/21 00:12:09;;;;;;;7.32;6.70;;;25.40;76.00;;;;;;5025121;28;20029;-64
2023/08/21 00:14:34;;;;;;;8.30;6.85;;;25.30;76.00;;;;;;5027535;28;20041;-65
2023/08/21 00:17:02;;;;;;;8.23;7.28;;;25.30;76.00;;;;;;5027894;28;20040;-64
2023/08/21 00:19:28;;;;;;;7.38;6.60;;;25.30;76.00;;;;;;5028266;28;20033;-64
2023/08/21 00:21:54;;;;;;;8.20;7.50;;;25.30;76.10;;;;;;5028125;28;20498;-64
2023/08/21 00:24:20;;;;;;;9.48;7.82;;;25.30;76.20;;;;;;5030073;28;20711;-64
2023/08/21 00:26:45;;;;;;;10.63;7.70;;;25.20;76.20;;;;;;5031247;28;20040;-66
2023/08/21 00:29:11;;;;;;;8.77;7.97;;;25.20;76.30;;;;;;5030594;28;20114;-64
2023/08/21 00:31:36;;;;;;;9.75;7.55;;;25.10;76.30;;;;;;5029039;28;20106;-65
2023/08/21 00:34:02;;;;;;;10.82;7.80;;;25.00;76.40;;;;;;5027168;28;20530;-65
2023/08/21 00:36:27;;;;;;;11.68;7.75;;;25.00;76.80;;;;;;5025398;28;20416;-64
2023/08/21 00:38:53;;;;;;;8.35;7.22;;;24.90;77.00;;;;;;5030158;28;20033;-64
2023/08/21 00:41:19;;;;;;;9.48;7.53;;;24.80;77.20;;;;;;5024639;28;20072;-65
2023/08/21 00:43:44;;;;;;;8.13;7.00;;;24.70;77.50;;;;;;5029414;28;20037;-64
2023/08/21 00:46:10;;;;;;;8.55;7.63;;;24.70;77.80;;;;;;5034567;28;20487;-64
2023/08/21 00:48:36;;;;;;;8.60;7.80;;;24.60;78.00;;;;;;5036436;28;20128;-64
2023/08/21 00:51:03;;;;;;;10.40;7.82;;;24.60;78.10;;;;;;5036980;28;20052;-64
2023/08/21 00:53:29;;;;;;;10.45;8.35;;;24.50;78.20;;;;;;5032057;28;20040;-64
2023/08/21 00:55:55;;;;;;;9.65;7.20;;;24.50;78.20;;;;;;5031758;28;20037;-65
2023/08/21 00:58:21;;;;;;;11.02;7.40;;;24.50;78.20;;;;;;5032369;28;20408;-66
2023/08/21 01:00:49;;;;;;;10.52;8.07;;;24.50;78.40;;;;;;5024926;28;20041;-64
2023/08/21 01:03:15;;;;;;;9.90;7.15;;;24.40;78.70;;;;;;5026689;28;20037;-64
2023/08/21 01:05:41;;;;;;;8.93;7.70;;;24.40;78.70;;;;;;5029448;28;20040;-66
2023/08/21 01:08:28;;;;;;;7.97;7.25;;;24.40;78.60;;;;;;5027666;28;20465;-63
2023/08/21 01:11:01;;;;;;;8.85;7.50;;;24.40;78.90;;;;;;5023854;28;20545;-64
2023/08/21 01:13:35;;;;;;;8.10;7.40;;;24.40;78.70;;;;;;5030430;28;20041;-65
2023/08/21 01:16:02;;;;;;;9.23;7.93;;;24.40;79.00;;;;;;5026945;28;20128;-64
2023/08/21 01:18:29;;;;;;;9.55;7.80;;;24.40;78.50;;;;;;5027865;28;20037;-64
2023/08/21 01:20:55;;;;;;;8.50;7.60;;;24.40;78.60;;;;;;5026129;28;20037;-64
2023/08/21 01:23:37;;;;;;;8.50;7.45;;;24.40;78.60;;;;;;5030666;28;20180;-64
2023/08/21 01:26:04;;;;;;;8.73;7.82;;;24.30;79.40;;;;;;5030355;28;20040;-65
2023/08/21 01:28:32;;;;;;;8.15;7.40;;;24.30;78.90;;;;;;5029623;28;20037;-64
2023/08/21 01:31:23;;;;;;;8.98;8.18;;;24.20;79.70;;;;;;5029608;28;20052;-64
2023/08/21 01:33:53;;;;;;;9.45;7.45;;;24.20;79.90;;;;;;5033361;28;20037;-65
2023/08/21 01:36:20;;;;;;;9.00;7.70;;;24.10;79.30;;;;;;5031372;28;20033;-64
2023/08/21 01:38:47;;;;;;;8.98;7.80;;;24.10;79.40;;;;;;5028287;28;20038;-65
2023/08/21 01:41:12;;;;;;;8.10;7.40;;;24.10;79.60;;;;;;5029819;28;20124;-64
2023/08/21 01:43:38;;;;;;;8.15;7.35;;;24.00;79.70;;;;;;5026970;28;20129;-64
2023/08/21 01:46:03;;;;;;;7.93;7.22;;;23.90;79.90;;;;;;5032082;28;20108;-64
2023/08/21 01:48:29;;;;;;;7.82;7.07;;;23.90;80.10;;;;;;5033382;28;20029;-64
2023/08/21 01:50:55;;;;;;;10.05;7.55;;;23.90;80.30;;;;;;5034056;28;20129;-64
2023/08/21 01:53:20;;;;;;;8.50;7.50;;;23.90;80.50;;;;;;5032650;28;20400;-64
2023/08/21 01:55:46;;;;;;;8.55;7.55;;;23.90;80.60;;;;;;5027880;28;20137;-64
2023/08/21 01:58:11;;;;;;;8.32;7.53;;;23.80;81.50;;;;;;5028209;28;20107;-63
2023/08/21 02:00:37;;;;;;;8.27;7.45;;;23.80;80.60;;;;;;5026114;28;20396;-64
2023/08/21 02:03:03;;;;;;;8.32;7.47;;;23.80;80.70;;;;;;5023122;28;20049;-64
2023/08/21 02:05:28;;;;;;;10.23;7.97;;;23.80;80.80;;;;;;5024837;28;20560;-64
2023/08/21 02:07:54;;;;;;;7.82;7.07;;;23.80;80.80;;;;;;5026969;28;20070;-64
2023/08/21 02:10:20;;;;;;;10.60;7.88;;;23.80;80.90;;;;;;5026408;28;20528;-64
2023/08/21 02:12:45;;;;;;;9.85;7.90;;;23.70;80.70;;;;;;5025697;28;20042;-64
2023/08/21 02:15:11;;;;;;;10.15;7.45;;;23.70;80.80;;;;;;5026738;28;20125;-64
2023/08/21 02:17:36;;;;;;;8.38;7.53;;;23.70;80.80;;;;;;5024118;28;20030;-63
2023/08/21 02:20:02;;;;;;;7.45;6.85;;;23.60;80.80;;;;;;5024011;28;20037;-64
2023/08/21 02:22:28;;;;;;;10.20;7.93;;;23.60;80.90;;;;;;5026403;28;20057;-64
2023/08/21 02:24:53;;;;;;;8.45;7.60;;;23.60;81.10;;;;;;5025151;28;20029;-64
2023/08/21 02:27:19;;;;;;;7.82;7.13;;;23.50;81.20;;;;;;5028477;28;20363;-64
2023/08/21 02:29:44;;;;;;;8.90;7.40;;;23.40;81.30;;;;;;5025891;28;20393;-64
2023/08/21 02:32:10;;;;;;;9.07;7.53;;;23.40;81.50;;;;;;5025301;28;20103;-66
2023/08/21 02:34:36;;;;;;;7.95;7.25;;;23.40;81.70;;;;;;5026930;28;20064;-64
2023/08/21 02:37:02;;;;;;;10.25;7.47;;;23.40;81.70;;;;;;5033414;28;20043;-64
2023/08/21 02:39:28;;;;;;;7.95;7.25;;;23.40;81.90;;;;;;5025546;28;20041;-64
2023/08/21 02:41:54;;;;;;;8.20;7.25;;;23.30;81.80;;;;;;5027929;28;20044;-64
2023/08/21 02:44:19;;;;;;;8.45;7.68;;;23.30;82.00;;;;;;5030888;28;20167;-64
2023/08/21 02:46:45;;;;;;;8.35;7.18;;;23.30;82.20;;;;;;5025916;28;20056;-65
2023/08/21 02:49:10;;;;;;;9.02;8.10;;;23.30;82.10;;;;;;5031679;28;20037;-65
2023/08/21 02:51:36;;;;;;;7.90;7.20;;;23.30;82.20;;;;;;5026127;28;20412;-64
2023/08/21 02:54:01;;;;;;;8.82;7.57;;;23.30;82.20;;;;;;5025425;28;20229;-64
2023/08/21 02:56:27;;;;;;;8.77;7.75;;;23.30;82.20;;;;;;5029304;28;20043;-64
2023/08/21 02:58:52;;;;;;;8.30;7.50;;;23.20;82.20;;;;;;5030317;28;20378;-64
2023/08/21 03:01:18;;;;;;;8.52;7.45;;;23.20;82.20;;;;;;5027035;28;20048;-64
2023/08/21 03:03:44;;;;;;;8.60;7.72;;;23.20;83.20;;;;;;5030676;28;20528;-64
2023/08/21 03:06:09;;;;;;;7.82;7.05;;;23.20;82.50;;;;;;5027841;28;20071;-65
2023/08/21 03:08:35;;;;;;;8.70;7.30;;;23.10;82.60;;;;;;5026553;28;20090;-64
2023/08/21 03:11:00;;;;;;;9.65;7.43;;;23.00;82.70;;;;;;5020744;28;20607;-64
2023/08/21 03:13:26;;;;;;;7.60;6.75;;;23.00;82.90;;;;;;5026488;28;20308;-64
2023/08/21 03:15:52;;;;;;;7.63;6.90;;;23.00;83.10;;;;;;5030638;28;20306;-64
2023/08/21 03:18:18;;;;;;;10.27;7.50;;;22.90;83.10;;;;;;5024320;28;20576;-64
2023/08/21 03:20:46;;;;;;;7.93;6.93;;;22.90;83.20;;;;;;5029627;28;20572;-64
2023/08/21 03:23:12;;;;;;;11.88;7.90;;;22.90;83.60;;;;;;5027450;28;20452;-65
2023/08/21 03:25:38;;;;;;;7.85;7.15;;;22.90;83.40;;;;;;5025688;28;20091;-64
2023/08/21 03:28:04;;;;;;;9.63;7.25;;;22.80;83.40;;;;;;5028450;28;20037;-64
2023/08/21 03:30:29;;;;;;;8.05;7.35;;;22.90;83.60;;;;;;5028237;28;20052;-63
2023/08/21 03:32:55;;;;;;;9.45;7.15;;;22.80;83.60;;;;;;5025221;28;20041;-64
2023/08/21 03:35:20;;;;;;;9.68;7.05;;;22.80;83.70;;;;;;5028781;28;20550;-64
2023/08/21 03:37:46;;;;;;;8.27;7.43;;;22.80;83.60;;;;;;5030302;28;20041;-64
2023/08/21 03:40:12;;;;;;;10.05;7.05;;;22.80;83.80;;;;;;5028220;28;20516;-64
2023/08/21 03:42:37;;;;;;;9.30;7.18;;;22.80;83.70;;;;;;5027362;28;20116;-64
2023/08/21 03:45:06;;;;;;;9.85;7.55;;;22.70;83.70;;;;;;5028167;28;20042;-64
2023/08/21 03:47:32;;;;;;;8.30;7.07;;;22.80;83.80;;;;;;5028014;28;21998;-64
2023/08/21 03:49:57;;;;;;;10.05;7.43;;;22.80;83.70;;;;;;5031155;28;20473;-64
2023/08/21 03:52:23;;;;;;;9.30;7.47;;;22.80;83.70;;;;;;5030557;28;20034;-64
2023/08/21 03:54:49;;;;;;;7.70;6.90;;;22.80;83.70;;;;;;5026582;28;20778;-64
2023/08/21 03:57:14;;;;;;;7.82;6.68;;;22.80;83.60;;;;;;5026271;28;20040;-63
2023/08/21 03:59:40;;;;;;;8.57;6.80;;;22.80;83.40;;;;;;5029257;28;20029;-64
2023/08/21 04:02:06;;;;;;;8.30;7.50;;;22.80;83.30;;;;;;5028945;28;20049;-64
2023/08/21 04:04:32;;;;;;;12.73;8.60;;;22.80;83.40;;;;;;5029278;28;20472;-63
2023/08/21 04:06:57;;;;;;;9.65;8.65;;;22.80;83.80;;;;;;5029433;28;20036;-64
2023/08/21 04:09:23;;;;;;;10.07;8.70;;;22.80;83.90;;;;;;5030589;28;20123;-65
2023/08/21 04:11:48;;;;;;;10.20;8.77;;;22.80;83.80;;;;;;5024031;28;20040;-64
2023/08/21 04:14:14;;;;;;;13.23;9.25;;;22.90;84.00;;;;;;5031367;28;20115;-64
2023/08/21 04:16:39;;;;;;;11.02;9.23;;;22.90;84.00;;;;;;5034568;28;20037;-64
2023/08/21 04:19:05;;;;;;;10.18;9.07;;;22.90;83.90;;;;;;5033851;28;20087;-63
2023/08/21 04:21:31;;;;;;;13.25;10.13;;;22.90;84.00;;;;;;5028262;28;20543;-64
2023/08/21 04:23:57;;;;;;;10.70;9.55;;;22.90;84.00;;;;;;5028635;28;20225;-64
2023/08/21 04:26:22;;;;;;;10.85;9.75;;;22.90;83.80;;;;;;5030542;28;20041;-64
2023/08/21 04:28:48;;;;;;;12.23;9.50;;;22.80;84.00;;;;;;5028966;28;20037;-63
2023/08/21 04:31:13;;;;;;;11.52;9.70;;;22.90;84.00;;;;;;5030934;28;20393;-65
2023/08/21 04:33:39;;;;;;;10.68;9.50;;;22.90;84.00;;;;;;5033964;28;20037;-65
2023/08/21 04:36:05;;;;;;;10.65;9.52;;;22.90;84.00;;;;;;5035475;28;20037;-64
2023/08/21 04:38:30;;;;;;;10.43;9.13;;;22.90;84.00;;;;;;5030747;28;20036;-64
2023/08/21 04:40:56;;;;;;;10.88;9.43;;;22.90;84.00;;;;;;5030493;28;20500;-64
2023/08/21 04:43:21;;;;;;;11.02;8.73;;;22.90;84.10;;;;;;5031836;28;20120;-64
2023/08/21 04:45:52;;;;;;;10.80;8.75;;;22.90;84.10;;;;;;5033961;28;20526;-64
2023/08/21 04:48:19;;;;;;;8.52;7.72;;;22.90;84.30;;;;;;5026897;28;20035;-64
2023/08/21 04:50:45;;;;;;;12.35;8.23;;;22.90;84.00;;;;;;5028764;28;20044;-64
2023/08/21 04:53:11;;;;;;;7.80;7.03;;;22.80;84.00;;;;;;5027924;28;20137;-65
2023/08/21 04:55:37;;;;;;;7.70;6.90;;;22.80;84.00;;;;;;5031032;28;20068;-64
2023/08/21 04:58:03;;;;;;;8.55;7.35;;;22.80;84.10;;;;;;5028589;28;20029;-64
2023/08/21 05:00:28;;;;;;;7.70;6.93;;;22.80;84.10;;;;;;5030172;28;20034;-64
2023/08/21 05:02:54;;;;;;;8.95;7.20;;;22.80;84.00;;;;;;5031048;28;20036;-64
2023/08/21 05:05:20;;;;;;;11.13;7.28;;;22.70;84.00;;;;;;5033051;28;20041;-64
2023/08/21 05:07:46;;;;;;;8.20;7.40;;;22.70;84.00;;;;;;5032139;28;20094;-63
2023/08/21 05:10:11;;;;;;;8.10;7.28;;;22.70;84.20;;;;;;5023473;28;20033;-64
2023/08/21 05:12:37;;;;;;;8.82;7.93;;;22.70;84.20;;;;;;5022601;28;20048;-63
2023/08/21 05:15:03;;;;;;;11.43;7.57;;;22.70;84.30;;;;;;5029534;28;20515;-64
2023/08/21 05:17:29;;;;;;;10.38;7.50;;;22.70;84.50;;;;;;5031098;28;20025;-63
2023/08/21 05:19:55;;;;;;;11.60;7.60;;;22.70;84.60;;;;;;5031702;28;20088;-64
2023/08/21 05:22:20;;;;;;;9.35;8.43;;;22.70;84.80;;;;;;5029514;28;22591;-64
2023/08/21 05:24:46;;;;;;;11.20;8.27;;;22.70;85.00;;;;;;5030911;28;20453;-64
2023/08/21 05:27:11;;;;;;;8.82;7.93;;;22.60;85.90;;;;;;5028678;28;20064;-63
2023/08/21 05:29:37;;;;;;;8.68;7.80;;;22.60;85.20;;;;;;5027210;28;20552;-63
2023/08/21 05:32:03;;;;;;;10.48;7.07;;;22.70;85.40;;;;;;5026404;28;20068;-65
2023/08/21 05:34:28;;;;;;;9.73;8.00;;;22.70;85.60;;;;;;5033569;28;20029;-64
2023/08/21 05:36:54;;;;;;;9.82;7.10;;;22.70;85.70;;;;;;5029562;28;20444;-64
2023/08/21 05:39:20;;;;;;;10.18;7.07;;;22.70;85.60;;;;;;5032424;28;20094;-64
2023/08/21 05:41:46;;;;;;;10.55;7.55;;;22.70;85.80;;;;;;5027557;28;20025;-64
2023/08/21 05:44:11;;;;;;;12.15;7.85;;;22.70;85.90;;;;;;5031998;28;20034;-64
2023/08/21 05:46:38;;;;;;;10.30;7.82;;;22.80;86.00;;;;;;5030920;28;20040;-63
2023/08/21 05:49:03;;;;;;;9.13;7.72;;;22.80;86.10;;;;;;5031598;28;20041;-63
2023/08/21 05:51:29;;;;;;;12.02;7.70;;;22.90;86.40;;;;;;5026911;28;20459;-64
2023/08/21 05:53:55;;;;;;;7.80;6.75;;;22.90;86.50;;;;;;5027113;28;20563;-64
2023/08/21 05:56:21;;;;;;;11.45;7.70;;;23.00;86.40;;;;;;5025617;28;20037;-65
2023/08/21 05:58:47;;;;;;;8.63;7.78;;;23.00;86.20;;;;;;5026264;28;20049;-64
2023/08/21 06:01:12;;;;;;;8.70;7.82;;;23.00;86.20;;;;;;5026631;28;20042;-63
2023/08/21 06:03:38;;;;;;;8.82;8.02;;;23.10;86.20;;;;;;5028769;28;20038;-64
2023/08/21 06:06:04;;;;;;;10.38;8.05;;;23.10;86.20;;;;;;5026185;28;20041;-64
2023/08/21 06:08:29;;;;;;;9.13;7.53;;;23.20;86.10;;;;;;5023159;28;20036;-64
2023/08/21 06:10:55;;;;;;;12.60;8.38;;;23.20;86.00;;;;;;5023214;28;20041;-64
2023/08/21 06:13:21;;;;;;;10.07;7.60;;;23.30;86.10;;;;;;5025892;28;20041;-63
2023/08/21 06:15:47;;;;;;;11.18;8.05;;;23.30;86.00;;;;;;5028213;28;20037;-64
2023/08/21 06:18:14;;;;;;;7.82;7.13;;;23.40;86.20;;;;;;5008716;28;20124;-64
2023/08/21 06:20:41;;;;;;;10.65;7.97;;;23.50;86.00;;;;;;5007750;28;20112;-65
2023/08/21 06:23:07;;;;;;;7.95;7.15;;;23.60;86.20;;;;;;5018211;28;20127;-64
2023/08/21 06:25:33;;;;;;;10.93;7.53;;;23.60;86.00;;;;;;5021512;28;20060;-64
2023/08/21 06:27:58;;;;;;;12.02;8.38;;;23.70;86.40;;;;;;5019069;28;20072;-63
2023/08/21 06:30:25;;;;;;;8.63;7.70;;;23.80;86.20;;;;;;5016210;28;20120;-64
2023/08/21 06:32:51;;;;;;;9.20;8.30;;;23.90;86.30;;;;;;5026345;28;20464;-63
2023/08/21 06:35:17;;;;;;;10.30;7.20;;;24.00;86.10;;;;;;5024873;28;20037;-63
2023/08/21 06:37:43;;;;;;;8.50;7.65;;;24.10;86.00;;;;;;5027763;28;20492;-64
2023/08/21 06:40:09;;;;;;;10.27;7.18;;;24.20;86.00;;;;;;5022981;28;20270;-64
2023/08/21 06:42:34;;;;;;;9.20;8.02;;;24.20;85.90;;;;;;5024146;28;20033;-64
2023/08/21 06:45:00;;;;;;;9.73;7.57;;;24.30;85.90;;;;;;5026057;28;20459;-65
2023/08/21 06:47:26;;;;;;;10.20;7.25;;;24.40;85.50;;;;;;5022511;28;20064;-64
2023/08/21 06:49:51;;;;;;;10.95;7.45;;;24.50;85.00;;;;;;5016123;28;20113;-64
2023/08/21 06:52:17;;;;;;;11.18;7.20;;;24.60;84.70;;;;;;5021452;28;20170;-63
2023/08/21 06:54:44;;;;;;;8.85;7.57;;;24.60;84.50;;;;;;5022120;28;20556;-64
2023/08/21 06:57:09;;;;;;;9.75;7.38;;;24.70;84.30;;;;;;5024392;28;20047;-64
2023/08/21 06:59:36;;;;;;;11.70;7.82;;;24.70;84.00;;;;;;5022356;28;20545;-64
2023/08/21 07:02:02;;;;;;;8.90;7.00;;;24.80;83.50;;;;;;5019678;28;20029;-65
2023/08/21 07:04:28;;;;;;;8.13;7.03;;;24.90;83.40;;;;;;5017167;28;20515;-64
2023/08/21 07:06:54;;;;;;;8.10;6.82;;;25.00;83.20;;;;;;5016562;28;21331;-65
2023/08/21 07:09:19;;;;;;;9.70;6.93;;;25.00;83.40;;;;;;5021730;28;20802;-64
2023/08/21 07:11:45;;;;;;;9.48;7.10;;;25.00;83.30;;;;;;5013322;28;20044;-64
2023/08/21 07:14:13;;;;;;;7.93;6.95;;;25.00;82.90;;;;;;5021507;28;20099;-64
2023/08/21 07:16:39;;;;;;;9.93;7.40;;;25.10;82.90;;;;;;5017826;28;20073;-64
2023/08/21 07:19:04;;;;;;;7.45;6.75;;;25.20;82.70;;;;;;5022708;28;20390;-64
2023/08/21 07:21:30;;;;;;;7.55;6.88;;;25.30;82.60;;;;;;5021909;28;20033;-63
2023/08/21 07:23:56;;;;;;;9.98;7.70;;;25.40;82.40;;;;;;5024319;28;20092;-63
2023/08/21 07:26:21;;;;;;;8.27;7.47;;;25.40;82.00;;;;;;5025645;28;20423;-64
2023/08/21 07:28:47;;;;;;;8.32;7.40;;;25.50;81.90;;;;;;5025270;28;20057;-65
2023/08/21 07:31:12;;;;;;;8.63;7.20;;;25.50;81.50;;;;;;5024513;28;20598;-64
2023/08/21 07:33:38;;;;;;;9.30;7.28;;;25.60;81.50;;;;;;5028266;28;20524;-64
2023/08/21 07:36:05;;;;;;;9.43;8.35;;;25.70;81.40;;;;;;5016716;28;20063;-64
2023/08/21 07:38:31;;;;;;;11.23;7.63;;;25.70;81.30;;;;;;5020477;28;20536;-64
2023/08/21 07:41:08;;;;;;;9.82;7.70;;;25.70;80.80;;;;;;5031422;28;20644;-65
2023/08/21 07:43:34;;;;;;;8.43;7.63;;;25.80;80.60;;;;;;5024656;28;20066;-64
2023/08/21 07:46:07;;;;;;;11.25;7.65;;;25.90;80.60;;;;;;5028985;28;20030;-64
2023/08/21 07:48:33;;;;;;;8.48;7.65;;;25.90;80.60;;;;;;5029270;28;20036;-63
2023/08/21 07:50:58;;;;;;;10.88;8.23;;;26.00;80.60;;;;;;5028476;28;20046;-63
2023/08/21 07:53:25;;;;;;;10.10;7.55;;;26.10;80.30;;;;;;5033765;28;20047;-64
2023/08/21 07:55:51;;;;;;;12.23;7.75;;;26.10;80.10;;;;;;5030177;28;20047;-63
2023/08/21 07:58:16;;;;;;;12.57;8.13;;;26.20;80.10;;;;;;5026701;28;20421;-63
2023/08/21 08:00:42;;;;;;;8.75;7.93;;;26.30;79.90;;;;;;5024754;28;20057;-64
2023/08/21 08:03:08;;;;;;;8.50;7.50;;;26.30;79.20;;;;;;5030460;28;20061;-64
2023/08/21 08:05:34;;;;;;;9.20;7.32;;;26.40;79.20;;;;;;5036886;28;20049;-64
2023/08/21 08:07:59;;;;;;;11.35;8.18;;;26.50;78.90;;;;;;5033166;28;20052;-64
2023/08/21 08:10:25;;;;;;;9.00;7.97;;;26.60;78.30;;;;;;5031084;28;20048;-64
2023/08/21 08:12:51;;;;;;;9.05;7.82;;;26.60;77.80;;;;;;5037171;28;20507;-64
2023/08/21 08:15:17;;;;;;;11.45;8.10;;;26.70;78.00;;;;;;5037349;28;20091;-63
2023/08/21 08:17:45;;;;;;;9.13;7.53;;;26.70;77.30;;;;;;5035552;28;20029;-64
2023/08/21 08:20:14;;;;;;;8.85;7.95;;;26.80;77.30;;;;;;5037981;28;20037;-64
2023/08/21 08:22:40;;;;;;;8.68;7.78;;;26.90;77.20;;;;;;5037000;28;20033;-63
2023/08/21 08:25:06;;;;;;;9.77;8.23;;;27.00;76.70;;;;;;5037456;28;20029;-64
2023/08/21 08:27:32;;;;;;;8.45;7.55;;;27.10;76.80;;;;;;5037430;28;20033;-62
2023/08/21 08:29:58;;;;;;;8.40;7.57;;;27.10;76.50;;;;;;5035644;28;20033;-63
2023/08/21 08:32:24;;;;;;;8.15;7.32;;;27.20;76.20;;;;;;5034255;28;20032;-65
2023/08/21 08:34:50;;;;;;;7.50;6.80;;;27.20;75.60;;;;;;5038211;28;20116;-64
2023/08/21 08:37:16;;;;;;;9.38;7.60;;;27.30;75.50;;;;;;5033857;28;20124;-65
2023/08/21 08:39:41;;;;;;;10.20;7.40;;;27.30;75.40;;;;;;5034984;28;20403;-63
2023/08/21 08:42:08;;;;;;;8.23;6.97;;;27.40;75.40;;;;;;5037680;28;20092;-64
2023/08/21 08:44:38;;;;;;;7.38;6.50;;;27.50;75.20;;;;;;5037390;28;20040;-63
2023/08/21 08:47:03;;;;;;;10.23;7.40;;;27.60;74.80;;;;;;5036374;28;20425;-65
2023/08/21 08:49:30;;;;;;;7.50;6.80;;;27.70;73.90;;;;;;5036393;28;20079;-64
2023/08/21 08:51:58;;;;;;;7.00;6.15;;;27.70;73.90;;;;;;5035363;28;20069;-64
2023/08/21 08:54:25;;;;;;;9.32;6.97;;;27.80;73.90;;;;;;5035768;28;20509;-64
2023/08/21 08:56:51;;;;;;;7.75;6.43;;;27.90;73.60;;;;;;5034090;28;20513;-63
2023/08/21 08:59:17;;;;;;;7.82;7.03;;;28.00;74.10;;;;;;5033314;28;20037;-64
2023/08/21 09:01:42;;;;;;;7.68;6.85;;;28.00;73.20;;;;;;5036932;28;20044;-63
2023/08/21 09:04:09;;;;;;;6.88;6.22;;;28.10;72.80;;;;;;5037673;28;20503;-64
2023/08/21 09:06:34;;;;;;;6.70;6.07;;;28.20;72.60;;;;;;5035708;28;20033;-63
2023/08/21 09:09:00;;;;;;;7.40;6.70;;;28.30;72.50;;;;;;5034935;28;20041;-63
2023/08/21 09:11:26;;;;;;;6.82;6.13;;;28.40;72.10;;;;;;5034605;28;20079;-63
2023/08/21 09:13:53;;;;;;;7.35;6.07;;;28.40;72.10;;;;;;5035185;28;20036;-64
2023/08/21 09:16:24;;;;;;;7.22;6.57;;;28.50;72.20;;;;;;5035031;28;20038;-63
2023/08/21 09:18:57;;;;;;;6.88;5.93;;;28.60;72.60;;;;;;5035640;28;20469;-63
2023/08/21 09:21:25;;;;;;;6.93;6.22;;;28.70;71.40;;;;;;5036576;28;20125;-66
2023/08/21 09:23:59;;;;;;;6.65;5.97;;;28.80;71.30;;;;;;5034748;28;20497;-64
2023/08/21 09:26:25;;;;;;;6.55;5.95;;;28.90;70.30;;;;;;5035229;28;20178;-64
2023/08/21 09:28:52;;;;;;;11.50;6.70;;;29.00;70.40;;;;;;5037059;28;20137;-64
2023/08/21 09:31:30;;;;;;;6.85;6.18;;;29.00;69.50;;;;;;5031283;28;20034;-64
2023/08/21 09:33:57;;;;;;;8.25;5.70;;;29.10;68.80;;;;;;5037513;28;20081;-63
2023/08/21 09:36:24;;;;;;;6.63;5.78;;;29.20;69.20;;;;;;5037034;28;20116;-64
2023/08/21 09:38:51;;;;;;;6.45;5.78;;;29.20;68.70;;;;;;5032084;28;20098;-64
2023/08/21 09:41:22;;;;;;;6.20;5.28;;;29.30;67.50;;;;;;5033521;28;20041;-63
2023/08/21 09:43:48;;;;;;;6.00;5.40;;;29.30;66.80;;;;;;5033342;28;20412;-62
2023/08/21 09:46:16;;;;;;;6.15;5.45;;;29.40;67.10;;;;;;5033072;28;20037;-66
2023/08/21 09:48:45;;;;;;;6.78;5.18;;;29.50;67.10;;;;;;5034752;28;20214;-63
2023/08/21 09:51:11;;;;;;;5.95;5.45;;;29.60;66.00;;;;;;5032881;28;20055;-64
2023/08/21 09:53:37;;;;;;;7.15;5.35;;;29.60;66.40;;;;;;5034187;28;20040;-64
2023/08/21 09:56:03;;;;;;;6.05;5.55;;;29.70;66.40;;;;;;5025462;28;20114;-64
2023/08/21 09:58:29;;;;;;;10.05;6.00;;;29.80;66.20;;;;;;5026036;28;20037;-64
2023/08/21 10:00:59;;;;;;;6.78;5.78;;;29.90;66.00;;;;;;5027282;28;20048;-66
2023/08/21 10:03:25;;;;;;;6.15;5.57;;;29.90;64.90;;;;;;5024175;28;20025;-64
2023/08/21 10:05:54;;;;;;;6.47;5.07;;;30.00;65.40;;;;;;5030942;28;20405;-65
2023/08/21 10:08:25;;;;;;;5.45;5.03;;;30.10;65.30;;;;;;5025643;28;20509;-63
2023/08/21 10:10:51;;;;;;;6.95;4.78;;;30.20;64.30;;;;;;5024590;28;20501;-64
2023/08/21 10:13:17;;;;;;;5.18;4.78;;;30.30;63.70;;;;;;5034967;28;20087;-64
2023/08/21 10:15:44;;;;;;;5.03;4.55;;;30.40;62.00;;;;;;5034708;28;20036;-66
2023/08/21 10:18:30;;;;;;;4.43;4.03;;;30.40;61.90;;;;;;5032519;28;20041;-65
2023/08/21 10:21:09;;;;;;;5.40;4.68;;;30.50;59.80;;;;;;5034577;28;20425;-64
2023/08/21 10:23:37;;;;;;;4.90;4.45;;;30.60;60.90;;;;;;5035541;28;20036;-64
2023/08/21 10:26:06;;;;;;;5.05;4.45;;;30.70;59.10;;;;;;5034978;28;20408;-64
2023/08/21 10:28:52;;;;;;;5.03;4.53;;;30.70;58.50;;;;;;5031667;28;20511;-64
2023/08/21 10:31:39;;;;;;;6.13;4.47;;;30.80;58.80;;;;;;5034349;28;20044;-64
2023/08/21 10:34:10;;;;;;;6.85;4.20;;;30.90;58.20;;;;;;5034209;28;20124;-65
2023/08/21 10:36:44;;;;;;;4.65;4.20;;;30.90;58.10;;;;;;5034557;28;20032;-64
2023/08/21 10:39:22;;;;;;;5.07;4.18;;;30.90;58.10;;;;;;5031568;28;20109;-64
2023/08/21 10:41:55;;;;;;;4.63;3.90;;;31.00;57.00;;;;;;5034191;28;20558;-64
2023/08/21 10:44:55;;;;;;;4.90;4.10;;;31.00;56.50;;;;;;5034413;28;20041;-64
2023/08/21 10:47:31;;;;;;;4.78;4.30;;;31.10;57.00;;;;;;5032147;28;20037;-64
2023/08/21 10:50:05;;;;;;;4.85;4.40;;;31.10;57.80;;;;;;5031209;28;20068;-64
2023/08/21 10:52:35;;;;;;;10.40;4.60;;;31.20;57.70;;;;;;5035067;28;20400;-64
2023/08/21 10:55:03;;;;;;;5.00;4.60;;;31.20;58.50;;;;;;5034916;28;20347;-64
2023/08/21 10:57:31;;;;;;;5.07;4.35;;;31.30;58.50;;;;;;5035963;28;20338;-64
2023/08/21 11:00:13;;;;;;;8.43;4.55;;;31.30;57.90;;;;;;5031626;28;20036;-66
2023/08/21 11:02:42;;;;;;;5.88;4.35;;;31.40;57.20;;;;;;5035691;28;20029;-64
2023/08/21 11:05:08;;;;;;;5.15;4.43;;;31.50;57.40;;;;;;5033006;28;20041;-66
2023/08/21 11:07:52;;;;;;;5.15;4.43;;;31.50;57.10;;;;;;5035211;28;20069;-64
2023/08/21 11:10:22;;;;;;;6.97;4.28;;;31.60;56.70;;;;;;5032534;28;20033;-64
2023/08/21 11:12:52;;;;;;;8.48;4.20;;;31.70;58.30;;;;;;5034496;28;20040;-64
2023/08/21 11:15:18;;;;;;;5.53;4.47;;;31.80;56.70;;;;;;5033829;28;20048;-64
2023/08/21 11:17:54;;;;;;;7.70;4.40;;;31.80;56.40;;;;;;5033341;28;20041;-65
2023/08/21 11:20:20;;;;;;;4.80;3.83;;;31.80;55.70;;;;;;5034468;28;20033;-65
2023/08/21 11:22:45;;;;;;;4.22;3.83;;;31.90;55.80;;;;;;5038593;28;20569;-64
2023/08/21 11:25:11;;;;;;;5.82;3.78;;;31.90;56.00;;;;;;5038063;28;21898;-64
2023/08/21 11:27:37;;;;;;;4.82;3.55;;;31.90;56.10;;;;;;5036325;28;20121;-65
2023/08/21 11:30:04;;;;;;;4.18;3.88;;;31.90;55.40;;;;;;5034006;28;20045;-66
2023/08/21 11:32:30;;;;;;;3.78;3.55;;;32.00;55.10;;;;;;5033510;28;20038;-66
2023/08/21 11:34:57;;;;;;;4.72;4.05;;;32.00;54.90;;;;;;5035555;28;20040;-65
2023/08/21 11:37:24;;;;;;;7.55;4.10;;;32.10;54.80;;;;;;5037438;28;20061;-64
2023/08/21 11:39:52;;;;;;;4.13;3.75;;;32.10;54.80;;;;;;5034503;28;20033;-65
2023/08/21 11:42:20;;;;;;;5.38;3.85;;;32.10;54.60;;;;;;5034359;28;20048;-65
2023/08/21 11:44:49;;;;;;;4.63;3.47;;;32.20;54.30;;;;;;5036372;28;20029;-64
2023/08/21 11:47:17;;;;;;;5.88;3.70;;;32.30;53.60;;;;;;5038647;28;20044;-65
2023/08/21 11:49:44;;;;;;;6.55;3.80;;;32.20;53.60;;;;;;5036533;28;20029;-64
2023/08/21 11:52:14;;;;;;;4.47;3.42;;;32.30;53.20;;;;;;5038485;28;20061;-64
2023/08/21 11:54:40;;;;;;;4.22;3.85;;;32.30;53.40;;;;;;5036348;28;20055;-65
2023/08/21 11:57:12;;;;;;;4.82;3.67;;;32.30;53.60;;;;;;5038336;28;20433;-64
2023/08/21 11:59:38;;;;;;;4.00;3.58;;;32.40;53.00;;;;;;5037920;28;20037;-64
2023/08/21 12:02:24;;;;;;;5.22;3.70;;;32.40;53.30;;;;;;5036857;28;20050;-65
2023/08/21 12:05:06;;;;;;;4.68;3.45;;;32.50;52.80;;;;;;5036324;28;20125;-66
2023/08/21 12:07:35;;;;;;;4.13;3.55;;;32.50;51.90;;;;;;5037273;28;20071;-64
2023/08/21 12:10:01;;;;;;;7.07;3.70;;;32.50;51.50;;;;;;5037714;28;20044;-66
2023/08/21 12:12:26;;;;;;;5.55;3.78;;;32.50;52.30;;;;;;5032435;28;20037;-65
2023/08/21 12:14:52;;;;;;;5.30;3.83;;;32.50;52.90;;;;;;5037286;28;20033;-65
2023/08/21 12:17:18;;;;;;;4.35;3.70;;;32.50;53.00;;;;;;5038044;28;20029;-65
2023/08/21 12:19:43;;;;;;;4.95;3.70;;;32.50;52.90;;;;;;5038444;28;20523;-64
2023/08/21 12:22:09;;;;;;;3.83;3.50;;;32.50;52.40;;;;;;5038463;28;20033;-65
2023/08/21 12:24:36;;;;;;;4.57;3.15;;;32.60;52.60;;;;;;5035340;28;20048;-64
2023/08/21 12:27:03;;;;;;;3.67;3.38;;;32.60;52.70;;;;;;5038900;28;20047;-64
2023/08/21 12:29:28;;;;;;;3.78;3.25;;;32.60;51.90;;;;;;5035644;28;20037;-64
2023/08/21 12:31:54;;;;;;;4.25;3.75;;;32.70;51.70;;;;;;5036481;28;20250;-64
2023/08/21 12:34:20;;;;;;;3.50;3.20;;;32.70;51.60;;;;;;5037636;28;20056;-66
2023/08/21 12:36:46;;;;;;;4.72;3.40;;;32.70;51.50;;;;;;5035710;28;20029;-65
2023/08/21 12:39:11;;;;;;;3.55;3.33;;;32.70;51.60;;;;;;5039579;28;20413;-65
2023/08/21 12:41:37;;;;;;;6.05;3.75;;;32.70;51.70;;;;;;5037712;28;20037;-65
2023/08/21 12:44:03;;;;;;;4.25;3.72;;;32.80;51.70;;;;;;5036366;28;20033;-65
2023/08/21 12:46:30;;;;;;;5.68;3.60;;;32.80;51.10;;;;;;5032514;28;20103;-65